createdAt,value
2023-01-23T00:01:35.161Z,97.82
2023-01-23T00:04:03.491Z,97.45
2023-01-23T00:06:30.776Z,97.87
2023-01-23T00:08:58.205Z,97.40
2023-01-23T00:11:30.330Z,97.57
2023-01-23T00:13:59.280Z,97.27
2023-01-23T00:16:32.667Z,97.60
2023-01-23T00:19:00.251Z,97.29
2023-01-23T00:21:29.160Z,97.83
2023-01-23T00:23:58.780Z,97.57
2023-01-23T00:26:30.233Z,97.59
2023-01-23T00:28:57.675Z,97.69
2023-01-23T00:31:30.634Z,97.66
2023-01-23T00:34:05.984Z,97.56
2023-01-23T00:36:42.149Z,98.06
2023-01-23T00:39:19.914Z,97.76
2023-01-23T00:41:49.135Z,98.20
2023-01-23T00:44:19.908Z,97.93
2023-01-23T00:46:48.287Z,97.71
2023-01-23T00:49:17.750Z,98.13
2023-01-23T00:51:46.183Z,97.76
2023-01-23T00:54:13.206Z,98.14
2023-01-23T00:56:40.170Z,97.76
2023-01-23T00:59:07.277Z,97.61
2023-01-23T01:01:35.179Z,97.81
2023-01-23T01:04:02.198Z,97.57
2023-01-23T01:06:29.888Z,97.17
2023-01-23T01:08:58.247Z,97.65
2023-01-23T01:11:26.077Z,97.62
2023-01-23T01:13:53.697Z,97.62
2023-01-23T01:16:20.885Z,97.59
2023-01-23T01:18:47.849Z,97.51
2023-01-23T01:21:17.771Z,97.73
2023-01-23T01:23:45.188Z,97.38
2023-01-23T01:26:12.787Z,98.01
2023-01-23T01:28:42.211Z,97.86
2023-01-23T01:31:16.088Z,97.55
2023-01-23T01:33:44.125Z,97.61
2023-01-23T01:36:19.231Z,97.80
2023-01-23T01:38:46.567Z,98.17
2023-01-23T01:41:14.455Z,98.35
2023-01-23T01:43:42.942Z,98.32
2023-01-23T01:46:12.645Z,97.35
2023-01-23T01:49:29.989Z,97.61
2023-01-23T01:52:11.205Z,98.04
2023-01-23T01:54:51.065Z,97.89
2023-01-23T01:57:35.527Z,97.46
2023-01-23T02:00:17.352Z,97.30
2023-01-23T02:03:01.372Z,97.84
2023-01-23T02:05:37.940Z,98.08
2023-01-23T02:08:52.985Z,97.73
2023-01-23T02:11:20.232Z,97.27
2023-01-23T02:13:47.199Z,97.43
2023-01-23T02:16:25.279Z,97.74
2023-01-23T02:19:00.990Z,97.70
2023-01-23T02:21:29.577Z,97.18
2023-01-23T02:24:27.989Z,97.53
2023-01-23T02:26:55.018Z,97.37
2023-01-23T02:29:21.953Z,98.11
2023-01-23T02:31:52.789Z,97.72
2023-01-23T02:34:22.141Z,98.27
2023-01-23T02:36:49.432Z,97.82
2023-01-23T02:39:21.214Z,97.59
2023-01-23T02:41:51.543Z,97.93
2023-01-23T02:44:26.844Z,98.27
2023-01-23T02:47:02.709Z,97.76
2023-01-23T02:49:29.878Z,97.31
2023-01-23T02:51:57.588Z,98.07
2023-01-23T02:54:26.152Z,97.76
2023-01-23T02:56:53.627Z,97.53
2023-01-23T02:59:39.607Z,97.40
2023-01-23T03:02:06.639Z,98.11
2023-01-23T03:04:33.749Z,97.93
2023-01-23T03:07:00.825Z,97.44
2023-01-23T03:09:28.332Z,98.12
2023-01-23T03:11:55.509Z,97.30
2023-01-23T03:14:24.449Z,97.67
2023-01-23T03:16:53.719Z,97.76
2023-01-23T03:19:26.591Z,97.27
2023-01-23T03:21:54.834Z,97.52
2023-01-23T03:24:24.832Z,97.86
2023-01-23T03:26:52.365Z,97.94
2023-01-23T03:29:44.261Z,97.94
2023-01-23T03:32:14.960Z,97.70
2023-01-23T03:34:43.402Z,97.62
2023-01-23T03:37:12.614Z,97.90
2023-01-23T03:39:58.264Z,97.40
2023-01-23T03:42:25.406Z,97.35
2023-01-23T03:44:53.703Z,96.92
2023-01-23T03:47:20.842Z,96.82
2023-01-23T03:49:47.835Z,96.83
2023-01-23T03:52:15.015Z,96.57
2023-01-23T03:54:42.257Z,96.66
2023-01-23T03:57:10.275Z,97.67
2023-01-23T03:59:37.211Z,97.33
2023-01-23T04:02:07.641Z,96.94
2023-01-23T04:04:35.963Z,97.11
2023-01-23T04:07:04.194Z,97.06
2023-01-23T04:09:31.213Z,97.03
2023-01-23T04:12:00.009Z,97.00
2023-01-23T04:14:37.425Z,96.74
2023-01-23T04:17:07.494Z,96.83
2023-01-23T04:19:35.553Z,96.68
2023-01-23T04:22:03.022Z,97.21
2023-01-23T04:24:29.969Z,97.30
2023-01-23T04:26:57.019Z,97.42
2023-01-23T04:29:24.024Z,96.86
2023-01-23T04:31:51.044Z,96.54
2023-01-23T04:34:21.346Z,96.99
2023-01-23T04:36:51.368Z,96.69
2023-01-23T04:39:18.285Z,97.08
2023-01-23T04:41:45.577Z,97.10
2023-01-23T04:44:22.109Z,96.73
2023-01-23T04:46:55.440Z,96.59
2023-01-23T04:49:24.526Z,96.63
2023-01-23T04:51:55.160Z,96.48
2023-01-23T04:54:22.273Z,97.12
2023-01-23T04:56:49.856Z,97.34
2023-01-23T04:59:16.950Z,97.60
2023-01-23T05:01:45.463Z,97.22
2023-01-23T05:04:12.750Z,97.93
2023-01-23T05:06:40.084Z,97.51
2023-01-23T05:09:08.668Z,97.10
2023-01-23T05:11:35.619Z,97.91
2023-01-23T05:14:03.076Z,97.58
2023-01-23T05:16:30.143Z,97.30
2023-01-23T05:18:57.099Z,97.13
2023-01-23T05:21:24.058Z,97.86
2023-01-23T05:23:51.179Z,97.86
2023-01-23T05:26:18.240Z,97.97
2023-01-23T05:28:46.211Z,97.67
2023-01-23T05:31:13.734Z,98.00
2023-01-23T05:33:40.815Z,97.85
2023-01-23T05:36:08.124Z,97.10
2023-01-23T05:38:38.253Z,97.91
2023-01-23T05:41:05.344Z,97.25
2023-01-23T05:43:32.581Z,97.44
2023-01-23T05:46:01.497Z,97.26
2023-01-23T05:48:29.521Z,97.38
2023-01-23T05:50:56.790Z,97.58
2023-01-23T05:53:23.904Z,97.62
2023-01-23T05:55:50.995Z,97.52
2023-01-23T05:58:17.913Z,97.41
2023-01-23T06:00:44.826Z,97.70
2023-01-23T06:03:11.799Z,98.00
2023-01-23T06:05:43.301Z,97.60
2023-01-23T06:08:14.590Z,96.98
2023-01-23T06:10:41.460Z,97.27
2023-01-23T06:13:08.360Z,97.18
2023-01-23T06:15:35.425Z,97.75
2023-01-23T06:18:02.504Z,97.64
2023-01-23T06:20:29.937Z,97.78
2023-01-23T06:22:57.416Z,97.85
2023-01-23T06:25:24.844Z,97.94
2023-01-23T06:27:55.109Z,97.47
2023-01-23T06:30:22.489Z,97.72
2023-01-23T06:32:49.665Z,97.44
2023-01-23T06:35:16.832Z,96.83
2023-01-23T06:37:45.933Z,96.99
2023-01-23T06:40:14.252Z,97.32
2023-01-23T06:42:42.534Z,97.54
2023-01-23T06:45:12.094Z,97.52
2023-01-23T06:47:39.296Z,97.57
2023-01-23T06:50:07.505Z,97.48
2023-01-23T06:52:34.658Z,96.82
2023-01-23T06:55:01.633Z,97.32
2023-01-23T06:57:28.721Z,97.14
2023-01-23T06:59:55.617Z,97.35
2023-01-23T07:02:23.350Z,97.01
2023-01-23T07:04:50.443Z,96.94
2023-01-23T07:07:18.469Z,97.27
2023-01-23T07:09:45.531Z,97.87
2023-01-23T07:12:13.180Z,97.16
2023-01-23T07:14:40.099Z,96.67
2023-01-23T07:17:07.162Z,96.94
2023-01-23T07:19:34.134Z,97.81
2023-01-23T07:22:01.372Z,97.35
2023-01-23T07:24:32.469Z,97.10
2023-01-23T07:27:00.235Z,97.25
2023-01-23T07:29:27.308Z,96.55
2023-01-23T07:31:54.354Z,96.48
2023-01-23T07:34:21.379Z,96.61
2023-01-23T07:36:48.272Z,96.63
2023-01-23T07:39:16.093Z,96.66
2023-01-23T07:41:44.828Z,96.81
2023-01-23T07:44:21.687Z,96.75
2023-01-23T07:46:49.823Z,96.53
2023-01-23T07:49:17.365Z,96.65
2023-01-23T07:51:44.431Z,96.59
2023-01-23T07:54:11.698Z,97.24
2023-01-23T07:56:41.756Z,96.48
2023-01-23T07:59:09.021Z,96.75
2023-01-23T08:01:36.056Z,96.39
2023-01-23T08:04:03.215Z,96.24
2023-01-23T08:06:30.309Z,96.31
2023-01-23T08:08:57.258Z,96.93
2023-01-23T08:11:26.417Z,96.80
2023-01-23T08:13:53.498Z,97.24
2023-01-23T08:16:20.541Z,96.97
2023-01-23T08:18:47.755Z,96.68
2023-01-23T08:21:14.900Z,96.55
2023-01-23T08:23:45.779Z,96.59
2023-01-23T08:26:16.256Z,96.57
2023-01-23T08:28:46.004Z,96.57
2023-01-23T08:31:14.922Z,96.51
2023-01-23T08:33:42.472Z,96.75
2023-01-23T08:36:12.958Z,96.63
2023-01-23T08:38:40.343Z,96.55
2023-01-23T08:41:09.820Z,95.91
2023-01-23T08:43:38.187Z,95.99
2023-01-23T08:46:05.270Z,95.84
2023-01-23T08:48:34.091Z,96.17
2023-01-23T08:51:14.066Z,95.96
2023-01-23T08:53:42.026Z,96.10
2023-01-23T08:56:19.248Z,96.02
2023-01-23T08:58:51.345Z,96.20
2023-01-23T09:01:25.755Z,95.71
2023-01-23T09:03:53.299Z,95.42
2023-01-23T09:06:22.747Z,95.29
2023-01-23T09:08:50.410Z,95.33
2023-01-23T09:11:18.646Z,95.43
2023-01-23T09:13:46.870Z,95.90
2023-01-23T09:16:14.455Z,95.74
2023-01-23T09:18:42.504Z,96.15
2023-01-23T09:21:14.592Z,95.66
2023-01-23T09:23:42.301Z,95.61
2023-01-23T09:26:13.332Z,95.63
2023-01-23T09:28:42.701Z,95.04
2023-01-23T09:31:14.684Z,95.18
2023-01-23T09:33:42.724Z,95.17
2023-01-23T09:36:10.559Z,95.29
2023-01-23T09:38:37.729Z,94.96
2023-01-23T09:41:23.623Z,95.06
2023-01-23T09:44:11.644Z,94.84
2023-01-23T09:47:02.412Z,94.72
2023-01-23T09:49:53.228Z,95.63
2023-01-23T09:52:25.998Z,95.34
2023-01-23T09:55:18.446Z,95.01
2023-01-23T09:57:55.711Z,94.64
2023-01-23T10:00:29.957Z,94.78
2023-01-23T10:02:58.086Z,94.09
2023-01-23T10:06:09.306Z,93.49
2023-01-23T10:08:55.111Z,94.07
2023-01-23T10:11:42.655Z,93.06
2023-01-23T10:15:19.181Z,94.53
2023-01-23T10:18:15.882Z,93.97
2023-01-23T10:21:28.903Z,94.10
2023-01-23T10:24:40.480Z,93.57
2023-01-23T10:27:41.773Z,93.81
2023-01-23T10:30:35.101Z,93.46
2023-01-23T10:33:16.185Z,93.61
2023-01-23T10:36:05.113Z,93.69
2023-01-23T10:38:48.060Z,93.87
2023-01-23T10:41:23.549Z,94.34
2023-01-23T10:43:54.812Z,92.63
2023-01-23T10:46:43.374Z,93.68
2023-01-23T10:49:10.446Z,93.98
2023-01-23T10:51:47.845Z,93.82
2023-01-23T10:54:32.836Z,93.39
2023-01-23T10:57:24.227Z,93.87
2023-01-23T11:00:45.644Z,93.25
2023-01-23T11:03:32.630Z,94.59
2023-01-23T11:06:09.350Z,93.73
2023-01-23T11:08:47.268Z,93.66
2023-01-23T11:11:23.786Z,93.06
2023-01-23T11:14:22.643Z,93.02
2023-01-23T11:17:33.279Z,92.97
2023-01-23T11:20:32.207Z,93.52
2023-01-23T11:30:54.201Z,93.69
2023-01-23T11:33:25.240Z,93.63
2023-01-23T11:36:19.406Z,93.53
2023-01-23T11:39:19.070Z,93.35
2023-01-23T11:42:04.498Z,93.39
2023-01-23T11:44:44.999Z,94.28
2023-01-23T11:47:59.045Z,93.73
2023-01-23T11:50:55.970Z,92.81
2023-01-23T11:53:58.575Z,93.33
2023-01-23T11:56:33.301Z,92.96
2023-01-23T11:59:31.952Z,92.33
2023-01-23T12:02:40.489Z,93.25
2023-01-23T12:06:13.879Z,93.62
2023-01-23T12:09:12.275Z,92.69
2023-01-23T12:12:20.372Z,92.98
2023-01-23T12:15:23.715Z,93.09
2023-01-23T12:18:17.354Z,93.16
2023-01-23T12:20:48.312Z,93.20
2023-01-23T12:23:49.112Z,92.73
2023-01-23T12:26:24.571Z,93.15
2023-01-23T12:30:08.688Z,92.52
2023-01-23T12:32:54.733Z,92.46
2023-01-23T12:35:42.641Z,93.02
2023-01-23T12:38:44.203Z,92.96
2023-01-23T12:41:53.343Z,93.04
2023-01-23T12:44:54.107Z,92.85
2023-01-23T12:47:44.690Z,93.42
2023-01-23T12:50:42.450Z,92.83
2023-01-23T12:53:18.070Z,92.58
2023-01-23T12:56:15.571Z,92.78
2023-01-23T12:59:14.171Z,93.08
2023-01-23T13:02:46.025Z,92.51
2023-01-23T13:06:00.385Z,92.33
2023-01-23T13:08:38.389Z,92.14
2023-01-23T13:11:44.927Z,92.94
2023-01-23T13:15:06.475Z,92.59
2023-01-23T13:17:40.005Z,92.64
2023-01-23T13:20:51.932Z,92.56
2023-01-23T13:23:33.403Z,92.37
2023-01-23T13:26:15.768Z,91.86
2023-01-23T13:28:57.870Z,91.47
2023-01-23T13:31:47.507Z,91.51
2023-01-23T13:34:37.082Z,91.09
2023-01-23T13:37:51.244Z,91.51
2023-01-23T13:40:24.590Z,90.88
2023-01-23T13:42:52.019Z,91.04
2023-01-23T13:45:30.811Z,90.89
2023-01-23T14:20:39.988Z,90.76
2023-01-23T14:23:29.739Z,92.13
2023-01-23T14:25:57.517Z,91.96
2023-01-23T14:28:24.933Z,92.52
2023-01-23T14:31:06.821Z,91.50
2023-01-23T14:33:45.330Z,92.04
2023-01-23T14:36:18.336Z,91.88
2023-01-23T14:38:49.997Z,92.75
2023-01-23T14:41:20.904Z,91.93
2023-01-23T14:43:56.943Z,92.28
2023-01-23T14:46:39.107Z,92.34
2023-01-23T14:49:09.857Z,92.24
2023-01-23T14:51:39.626Z,92.01
2023-01-23T14:54:22.793Z,92.95
2023-01-23T14:56:51.132Z,92.30
2023-01-23T14:59:40.166Z,91.86
2023-01-23T15:02:40.329Z,92.26
2023-01-23T15:05:23.479Z,93.08
2023-01-23T15:08:05.951Z,92.98
2023-01-23T15:10:43.728Z,92.85
2023-01-23T15:13:50.179Z,93.43
2023-01-23T15:16:29.188Z,93.34
2023-01-23T15:19:18.790Z,92.97
2023-01-23T15:21:46.188Z,93.25
2023-01-23T15:24:13.194Z,92.99
2023-01-23T15:27:01.300Z,93.77
2023-01-23T15:29:28.476Z,93.55
2023-01-23T15:31:57.191Z,92.87
2023-01-23T15:34:29.313Z,92.94
2023-01-23T15:37:13.977Z,93.05
2023-01-23T15:40:02.416Z,93.09
2023-01-23T15:42:35.649Z,92.63
2023-01-23T15:45:15.055Z,93.11
2023-01-23T15:47:44.250Z,92.56
2023-01-23T15:50:13.275Z,92.70
2023-01-23T15:52:53.827Z,93.33
2023-01-23T15:55:26.481Z,92.38
2023-01-23T15:57:55.224Z,92.26
2023-01-23T16:00:29.961Z,92.80
2023-01-23T16:02:59.513Z,92.78
2023-01-23T16:05:35.342Z,92.77
2023-01-23T16:08:05.827Z,92.64
2023-01-23T16:10:38.480Z,92.39
2023-01-23T16:13:07.849Z,92.85
2023-01-23T16:15:38.163Z,92.10
2023-01-23T16:18:05.671Z,92.65
2023-01-23T16:20:41.233Z,92.64
2023-01-23T16:23:19.645Z,93.34
2023-01-23T16:25:48.203Z,92.96
2023-01-23T16:28:20.423Z,92.63
2023-01-23T16:30:50.720Z,92.53
2023-01-23T16:33:22.111Z,92.43
2023-01-23T16:35:51.303Z,93.08
2023-01-23T16:38:53.485Z,93.31
2023-01-23T16:41:20.454Z,92.77
2023-01-23T16:43:47.388Z,93.49
2023-01-23T16:46:17.396Z,94.04
2023-01-23T16:48:44.489Z,93.25
2023-01-23T16:51:24.169Z,94.13
2023-01-23T16:53:57.953Z,93.35
2023-01-23T16:56:38.064Z,93.69
2023-01-23T16:59:08.513Z,94.13
2023-01-23T17:01:40.525Z,93.63
2023-01-23T17:04:07.744Z,93.20
2023-01-23T17:06:34.867Z,94.45
2023-01-23T17:09:01.803Z,94.32
2023-01-23T17:11:50.081Z,94.18
2023-01-23T17:14:24.669Z,93.88
2023-01-23T17:16:53.438Z,94.62
2023-01-23T17:19:40.248Z,94.45
2023-01-23T17:22:30.370Z,94.92
2023-01-23T17:24:57.454Z,94.16
2023-01-23T17:27:24.521Z,94.40
2023-01-23T17:29:51.434Z,93.85
2023-01-23T17:32:39.183Z,93.99
2023-01-23T17:35:17.093Z,94.08
2023-01-23T17:37:44.210Z,93.71
2023-01-23T17:40:15.939Z,94.63
2023-01-23T17:42:43.724Z,93.81
2023-01-23T17:45:19.785Z,94.35
2023-01-23T17:47:54.771Z,94.23
2023-01-23T17:50:27.077Z,93.88
2023-01-23T17:52:54.836Z,93.79
2023-01-23T17:55:28.821Z,93.40
2023-01-23T17:57:55.707Z,94.19
2023-01-23T18:00:23.481Z,93.85
2023-01-23T18:03:01.941Z,94.11
2023-01-23T18:05:29.002Z,93.93
2023-01-23T18:07:56.284Z,94.14
2023-01-23T18:10:28.353Z,93.83
2023-01-23T18:13:14.208Z,94.16
2023-01-23T18:16:07.408Z,93.83
2023-01-23T18:18:39.066Z,93.82
2023-01-23T18:21:15.511Z,93.48
2023-01-23T18:23:43.196Z,94.21
2023-01-23T18:26:27.953Z,94.15
2023-01-23T18:29:10.127Z,93.84
2023-01-23T18:32:04.963Z,94.13
2023-01-23T18:35:25.408Z,93.44
2023-01-23T18:38:54.666Z,91.93
2023-01-23T18:41:27.094Z,93.09
2023-01-23T18:44:12.478Z,93.06
2023-01-23T18:46:39.732Z,92.43
2023-01-23T18:49:08.781Z,92.76
2023-01-23T18:51:49.684Z,93.51
2023-01-23T18:55:11.446Z,92.84
2023-01-23T18:58:20.941Z,93.63
2023-01-23T19:01:29.808Z,93.38
2023-01-23T19:03:57.592Z,93.30
2023-01-23T19:06:26.277Z,93.58
2023-01-23T19:08:54.480Z,93.02
2023-01-23T19:12:24.920Z,92.86
2023-01-23T19:15:41.444Z,93.01
2023-01-23T19:18:43.285Z,93.86
2023-01-23T19:21:26.664Z,93.12
2023-01-23T19:24:09.943Z,93.74
2023-01-23T19:26:42.009Z,93.45
2023-01-23T19:29:21.569Z,94.04
2023-01-23T19:32:06.924Z,94.22
2023-01-23T19:34:34.729Z,94.06
2023-01-23T19:37:02.905Z,93.82
2023-01-23T19:39:30.708Z,93.64
2023-01-23T19:41:59.358Z,93.80
2023-01-23T19:44:28.933Z,93.79
2023-01-23T19:46:56.094Z,93.88
2023-01-23T19:49:23.167Z,94.20
2023-01-23T19:51:50.195Z,93.76
2023-01-23T19:54:17.279Z,94.17
2023-01-23T19:56:44.224Z,93.37
2023-01-23T19:59:11.469Z,93.75
2023-01-23T20:01:52.294Z,93.37
2023-01-23T20:04:22.922Z,93.56
2023-01-23T20:06:51.843Z,93.76
2023-01-23T20:09:20.020Z,93.88
2023-01-23T20:11:47.923Z,93.51
2023-01-23T20:14:15.690Z,94.09
2023-01-23T20:16:44.538Z,94.24
2023-01-23T20:19:15.387Z,94.23
2023-01-23T20:21:42.552Z,93.73
2023-01-23T20:24:09.671Z,94.06
2023-01-23T20:26:38.725Z,94.15
2023-01-23T20:29:07.804Z,94.14
2023-01-23T20:31:35.763Z,94.13
2023-01-23T20:34:03.158Z,94.62
2023-01-23T20:36:30.306Z,94.14
2023-01-23T20:38:57.646Z,93.79
2023-01-23T20:41:24.781Z,94.02
2023-01-23T20:43:51.726Z,94.58
2023-01-23T20:46:21.631Z,94.29
2023-01-23T20:48:48.782Z,94.15
2023-01-23T20:51:16.830Z,93.97
2023-01-23T20:53:44.680Z,93.64
2023-01-23T20:56:19.409Z,93.96
2023-01-23T20:59:08.172Z,94.26
2023-01-23T21:01:57.842Z,93.73
2023-01-23T21:04:32.499Z,94.28
2023-01-23T21:07:00.223Z,94.41
2023-01-23T21:09:27.748Z,93.52
2023-01-23T21:11:55.506Z,93.16
2023-01-23T21:14:23.650Z,94.03
2023-01-23T21:16:50.664Z,93.69
2023-01-23T21:19:18.630Z,94.82
2023-01-23T21:21:46.884Z,94.62
2023-01-23T21:24:14.337Z,94.15
2023-01-23T21:26:41.826Z,94.39
2023-01-23T21:29:08.935Z,94.53
2023-01-23T21:31:39.305Z,94.43
2023-01-23T21:34:11.934Z,94.00
2023-01-23T21:36:41.020Z,93.95
2023-01-23T21:39:10.321Z,94.01
2023-01-23T21:41:37.587Z,94.03
2023-01-23T21:44:04.665Z,93.48
2023-01-23T21:46:31.656Z,94.13
2023-01-23T21:48:59.614Z,94.31
2023-01-23T21:51:27.783Z,94.13
2023-01-23T21:53:54.790Z,94.68
2023-01-23T21:56:23.982Z,94.75
2023-01-23T21:58:55.758Z,94.39
2023-01-23T22:01:42.021Z,94.42
2023-01-23T22:04:16.207Z,94.40
2023-01-23T22:07:01.358Z,95.02
2023-01-23T22:09:33.377Z,94.48
2023-01-23T22:12:01.196Z,94.43
2023-01-23T22:14:31.118Z,94.27
2023-01-23T22:16:58.443Z,94.76
2023-01-23T22:19:26.082Z,95.16
2023-01-23T22:21:55.946Z,94.65
2023-01-23T22:24:26.855Z,94.81
2023-01-23T22:26:55.094Z,94.74
2023-01-23T22:29:33.343Z,94.05
2023-01-23T22:32:12.484Z,94.20
2023-01-23T22:34:40.020Z,94.06
2023-01-23T22:37:08.247Z,93.07
2023-01-23T22:39:40.998Z,93.44
2023-01-23T22:42:19.737Z,92.78
2023-01-23T22:47:56.051Z,93.35
2023-01-23T22:50:34.979Z,93.41
2023-01-23T22:53:04.514Z,93.44
2023-01-23T22:55:32.069Z,93.56
2023-01-23T22:57:59.516Z,93.12
2023-01-23T23:00:31.996Z,93.10
2023-01-23T23:02:59.286Z,92.96
2023-01-23T23:05:27.145Z,92.93
2023-01-23T23:08:02.978Z,92.79
2023-01-23T23:10:30.645Z,93.21
2023-01-23T23:13:04.029Z,93.65
2023-01-23T23:15:41.770Z,93.06
2023-01-23T23:18:12.425Z,93.21
2023-01-23T23:20:42.706Z,93.67
2023-01-23T23:23:14.119Z,93.48
2023-01-23T23:25:42.111Z,93.31
2023-01-23T23:28:16.614Z,93.57
2023-01-23T23:31:01.264Z,93.61
2023-01-23T23:33:42.669Z,93.56
2023-01-23T23:36:23.626Z,93.38
2023-01-23T23:38:54.174Z,92.68
2023-01-23T23:41:36.040Z,92.79
2023-01-23T23:44:06.841Z,92.43
2023-01-23T23:46:40.143Z,92.35
2023-01-23T23:49:07.652Z,92.44
2023-01-23T23:51:37.624Z,92.56
2023-01-23T23:54:08.231Z,91.61
2023-01-23T23:56:35.749Z,91.64
2023-01-23T23:59:03.403Z,90.93
